Time;durP1;ratioP1;P1;durP2;ratioP2;P2;SDS_P1;SDS_P2;PMS_P1;PMS_P2;Temp;Humidity;BMP_temperature;BMP_pressure;BME280_temperature;BME280_humidity;BME280_pressure;Samples;Min_cycle;Max_cycle;Signal;HPM_P1;HPM_P2
2022/05/23 00:00:51;;;;;;;0.80;0.80;;;17.90;70.90;;;;;;5069536;28;20194;-70
2022/05/23 00:03:18;;;;;;;3.50;0.98;;;17.90;70.90;;;;;;5070123;28;20240;-71
2022/05/23 00:05:44;;;;;;;1.00;1.00;;;17.90;71.10;;;;;;5070964;28;20650;-70
2022/05/23 00:08:09;;;;;;;1.08;1.08;;;17.80;71.00;;;;;;5071595;28;20184;-70
2022/05/23 00:10:35;;;;;;;1.13;1.05;;;17.80;71.10;;;;;;5074405;28;20182;-70
2022/05/23 00:13:01;;;;;;;0.90;0.90;;;;;;;;;;5068035;28;20187;-70
2022/05/23 00:15:27;;;;;;;1.17;1.08;;;17.70;71.30;;;;;;5067857;28;20210;-70
2022/05/23 00:17:54;;;;;;;0.85;0.85;;;17.70;71.40;;;;;;5060067;28;20235;-70
2022/05/23 00:20:22;;;;;;;1.00;1.00;;;17.70;71.50;;;;;;5070032;28;20176;-71
2022/05/23 00:22:48;;;;;;;0.80;0.80;;;17.60;71.60;;;;;;5077075;28;20271;-70
2022/05/23 00:25:14;;;;;;;0.85;0.80;;;;;;;;;;5074793;28;20654;-70
2022/05/23 00:27:42;;;;;;;1.40;1.02;;;17.50;71.80;;;;;;5067630;28;20175;-70
2022/05/23 00:30:12;;;;;;;1.02;1.02;;;17.50;71.90;;;;;;5060175;28;20186;-70
2022/05/23 00:35:23;;;;;;;1.30;1.30;;;17.30;72.30;;;;;;5068136;28;20399;-71
2022/05/23 00:37:51;;;;;;;1.10;1.00;;;17.30;72.20;;;;;;5071928;28;20193;-70
2022/05/23 00:40:22;;;;;;;1.20;1.20;;;17.20;72.70;;;;;;5072110;28;20186;-70
2022/05/23 00:45:34;;;;;;;0.98;0.98;;;17.20;73.00;;;;;;5069940;28;20321;-70
2022/05/23 00:48:00;;;;;;;2.47;1.05;;;17.10;73.00;;;;;;5054418;28;20257;-70
2022/05/23 00:50:26;;;;;;;1.10;1.10;;;;;;;;;;5069739;28;20187;-70
2022/05/23 00:52:56;;;;;;;1.08;1.08;;;17.10;73.60;;;;;;5074135;28;20190;-70
2022/05/23 00:55:30;;;;;;;1.23;1.23;;;17.00;74.10;;;;;;5068005;28;20246;-70
2022/05/23 00:58:18;;;;;;;1.23;1.23;;;16.90;73.70;;;;;;5066900;28;20187;-70
2022/05/23 01:00:44;;;;;;;1.27;1.27;;;;;;;;;;5069943;28;20201;-70
2022/05/23 01:03:13;;;;;;;3.10;1.63;;;16.80;74.20;;;;;;5070103;28;20214;-70
2022/05/23 01:05:39;;;;;;;1.17;1.13;;;16.70;74.20;;;;;;5066256;28;20187;-69
2022/05/23 01:08:06;;;;;;;1.75;1.73;;;16.70;74.30;;;;;;5066796;28;20178;-70
2022/05/23 01:10:34;;;;;;;1.52;1.48;;;16.70;74.50;;;;;;5068351;28;20182;-70
2022/05/23 01:12:59;;;;;;;1.48;1.48;;;16.60;74.50;;;;;;5063365;28;20183;-70
2022/05/23 01:15:28;;;;;;;1.67;1.58;;;16.60;74.40;;;;;;5070266;28;20221;-70
2022/05/23 01:17:54;;;;;;;1.63;1.27;;;16.50;74.40;;;;;;5073803;28;20182;-70
2022/05/23 01:20:21;;;;;;;1.38;1.38;;;16.50;74.50;;;;;;5073417;28;20186;-70
2022/05/23 01:22:47;;;;;;;1.33;1.33;;;;;;;;;;5074619;28;20170;-70
2022/05/23 01:25:18;;;;;;;1.20;1.20;;;16.40;74.80;;;;;;5069665;28;20213;-70
2022/05/23 01:27:46;;;;;;;1.10;1.10;;;16.40;75.00;;;;;;5065308;28;20183;-71
2022/05/23 01:30:13;;;;;;;1.13;1.05;;;16.30;75.10;;;;;;5069805;28;20740;-69
2022/05/23 01:32:40;;;;;;;1.70;1.60;;;16.30;74.90;;;;;;5074485;28;20655;-70
2022/05/23 01:35:07;;;;;;;1.42;1.20;;;16.30;75.50;;;;;;5091165;28;20215;-69
2022/05/23 01:37:33;;;;;;;1.05;1.05;;;16.20;74.90;;;;;;5067532;28;20274;-69
2022/05/23 01:39:59;;;;;;;1.13;1.13;;;;;;;;;;5071831;28;20274;-69
2022/05/23 01:42:25;;;;;;;1.20;1.13;;;16.20;75.60;;;;;;5068189;28;20248;-69
2022/05/23 01:44:51;;;;;;;3.00;1.35;;;;;;;;;;5067613;28;20187;-69
2022/05/23 01:47:18;;;;;;;1.42;1.33;;;16.20;76.20;;;;;;5068816;28;20194;-69
2022/05/23 01:49:44;;;;;;;2.40;1.63;;;16.10;76.10;;;;;;5069055;28;20185;-69
2022/05/23 01:52:10;;;;;;;1.10;1.10;;;16.10;76.20;;;;;;5066803;28;20648;-70
2022/05/23 01:54:37;;;;;;;1.52;1.10;;;16.10;76.00;;;;;;5070620;28;20494;-70
2022/05/23 01:57:04;;;;;;;6.63;1.83;;;16.00;76.00;;;;;;5068829;28;20661;-69
2022/05/23 02:02:14;;;;;;;1.92;1.80;;;16.00;76.70;;;;;;5070784;28;20227;-70
2022/05/23 02:04:40;;;;;;;3.15;1.02;;;16.00;76.50;;;;;;5071397;28;20186;-70
2022/05/23 02:07:06;;;;;;;1.70;1.60;;;;;;;;;;5071054;28;20179;-69
2022/05/23 02:09:33;;;;;;;1.05;1.05;;;15.90;76.40;;;;;;5074904;28;20608;-69
2022/05/23 02:11:59;;;;;;;1.08;1.08;;;15.90;76.90;;;;;;5065489;28;20182;-69
2022/05/23 02:14:25;;;;;;;1.10;1.10;;;15.90;76.90;;;;;;5053368;28;20217;-70
2022/05/23 02:16:51;;;;;;;1.25;1.25;;;15.80;76.60;;;;;;5075048;28;20182;-69
2022/05/23 02:19:17;;;;;;;0.95;0.95;;;;;;;;;;5070602;28;20574;-69
2022/05/23 02:21:43;;;;;;;1.67;0.93;;;15.80;76.80;;;;;;5069551;28;20179;-69
2022/05/23 02:24:08;;;;;;;1.25;1.20;;;15.70;76.60;;;;;;5066971;28;20657;-69
2022/05/23 02:26:34;;;;;;;1.15;1.13;;;15.80;77.10;;;;;;5072232;28;20227;-69
2022/05/23 02:29:01;;;;;;;1.02;1.00;;;15.70;77.50;;;;;;5070140;28;20260;-69
2022/05/23 02:31:28;;;;;;;2.92;0.98;;;15.70;76.90;;;;;;5068997;28;20620;-70
2022/05/23 02:33:54;;;;;;;1.00;1.00;;;15.70;77.60;;;;;;5067684;28;20182;-70
2022/05/23 02:36:20;;;;;;;1.35;1.35;;;15.70;77.80;;;;;;5071503;28;20214;-69
2022/05/23 02:38:46;;;;;;;1.38;1.15;;;15.60;76.80;;;;;;5078075;28;20189;-70
2022/05/23 02:41:12;;;;;;;1.85;1.75;;;15.60;77.30;;;;;;5076383;28;20178;-70
2022/05/23 02:43:37;;;;;;;1.83;1.73;;;15.60;77.00;;;;;;5072436;28;20247;-70
2022/05/23 02:46:03;;;;;;;1.13;1.13;;;15.60;77.30;;;;;;5069270;28;20691;-70
2022/05/23 02:48:29;;;;;;;1.25;1.15;;;;;;;;;;5067944;28;20187;-69
2022/05/23 02:50:55;;;;;;;1.42;1.42;;;15.60;77.20;;;;;;5075099;28;20215;-69
2022/05/23 02:53:21;;;;;;;1.30;1.30;;;;;;;;;;5067279;28;20213;-69
2022/05/23 02:55:47;;;;;;;1.40;1.30;;;15.60;77.10;;;;;;5072652;28;20206;-69
2022/05/23 02:58:13;;;;;;;1.15;1.15;;;;;;;;;;5078318;28;20183;-69
2022/05/23 03:00:39;;;;;;;1.42;1.33;;;15.70;77.40;;;;;;5073017;28;20194;-69
2022/05/23 03:03:06;;;;;;;1.38;1.38;;;15.70;78.50;;;;;;5068743;28;20562;-69
2022/05/23 03:05:44;;;;;;;1.17;1.17;;;15.70;78.90;;;;;;5074515;28;20187;-70
2022/05/23 03:08:13;;;;;;;1.42;1.33;;;15.70;79.00;;;;;;5070364;28;20189;-70
2022/05/23 03:10:39;;;;;;;2.88;1.33;;;15.70;79.20;;;;;;5070930;28;20178;-70
2022/05/23 03:13:06;;;;;;;1.15;1.15;;;15.60;79.30;;;;;;5067795;28;20178;-70
2022/05/23 03:15:32;;;;;;;1.65;1.55;;;15.70;79.20;;;;;;5068801;28;20211;-70
2022/05/23 03:17:58;;;;;;;1.48;1.38;;;15.60;79.10;;;;;;5075143;28;20202;-69
2022/05/23 03:20:24;;;;;;;4.82;1.20;;;15.70;79.60;;;;;;5072798;28;20197;-69
2022/05/23 03:28:19;;;;;;;1.65;1.65;;;15.70;79.70;;;;;;5070761;28;20193;-69
2022/05/23 03:30:46;;;;;;;2.42;1.27;;;15.60;79.40;;;;;;5058155;28;20179;-70
2022/05/23 03:33:12;;;;;;;1.45;1.35;;;15.70;79.50;;;;;;5073675;28;20206;-71
2022/05/23 03:35:39;;;;;;;1.70;1.50;;;15.70;78.80;;;;;;5075166;28;20217;-71
2022/05/23 03:38:05;;;;;;;1.13;1.13;;;15.60;78.90;;;;;;5071853;28;20171;-70
2022/05/23 03:40:32;;;;;;;1.55;1.45;;;15.60;79.00;;;;;;5074947;28;20199;-70
2022/05/23 03:42:58;;;;;;;1.70;1.70;;;15.60;79.60;;;;;;5067015;28;20191;-69
2022/05/23 03:45:24;;;;;;;1.80;1.77;;;15.60;78.50;;;;;;5063375;28;20186;-69
2022/05/23 03:47:51;;;;;;;1.45;1.38;;;15.60;80.20;;;;;;5076223;28;20183;-69
2022/05/23 03:50:18;;;;;;;2.58;1.67;;;15.70;79.30;;;;;;5074441;28;20179;-69
2022/05/23 03:52:44;;;;;;;1.92;1.92;;;15.60;78.30;;;;;;5073266;28;20261;-69
2022/05/23 03:55:10;;;;;;;2.65;1.90;;;15.60;78.30;;;;;;5072627;28;20566;-70
2022/05/23 03:57:37;;;;;;;1.40;1.40;;;;;;;;;;5067914;28;20193;-69
2022/05/23 04:00:06;;;;;;;4.75;2.08;;;15.70;77.80;;;;;;5052557;28;20185;-69
2022/05/23 04:02:32;;;;;;;1.75;1.75;;;15.70;78.70;;;;;;5055144;28;20193;-70
2022/05/23 04:04:59;;;;;;;1.58;1.58;;;15.70;77.90;;;;;;5068970;28;20235;-69
2022/05/23 04:07:25;;;;;;;1.85;1.67;;;;;;;;;;5056826;28;20620;-70
2022/05/23 04:09:51;;;;;;;1.45;1.42;;;15.80;79.30;;;;;;5053199;28;20190;-70
2022/05/23 04:12:17;;;;;;;2.00;1.73;;;;;;;;;;5070275;28;20576;-70
2022/05/23 04:14:43;;;;;;;2.17;2.00;;;16.00;80.30;;;;;;5073273;28;20214;-70
2022/05/23 04:17:10;;;;;;;1.95;1.80;;;16.00;79.00;;;;;;5072706;28;20182;-70
2022/05/23 04:19:36;;;;;;;3.42;1.85;;;16.00;78.10;;;;;;5071526;28;20235;-70
2022/05/23 04:22:02;;;;;;;2.50;1.80;;;16.00;78.40;;;;;;5068398;28;20193;-71
2022/05/23 04:24:28;;;;;;;2.30;2.10;;;16.10;78.60;;;;;;5073313;28;20301;-70
2022/05/23 04:26:55;;;;;;;2.22;1.92;;;16.20;77.70;;;;;;5064258;28;20284;-70
2022/05/23 04:29:23;;;;;;;2.15;1.85;;;16.20;78.50;;;;;;5063948;28;20239;-69
2022/05/23 04:31:49;;;;;;;4.03;1.73;;;16.40;79.40;;;;;;5071234;28;20230;-71
2022/05/23 04:36:59;;;;;;;1.70;1.70;;;16.50;78.70;;;;;;5070782;28;20243;-71
2022/05/23 04:39:25;;;;;;;2.42;2.28;;;16.60;79.50;;;;;;5070582;28;20624;-71
2022/05/23 04:41:51;;;;;;;2.20;2.10;;;;;;;;;;5072943;28;20198;-71
2022/05/23 04:44:17;;;;;;;1.13;1.10;;;16.80;79.50;;;;;;5066055;28;20179;-71
2022/05/23 04:49:42;;;;;;;1.05;1.05;;;16.90;79.00;;;;;;5068326;28;20579;-71
2022/05/23 04:52:12;;;;;;;1.58;1.52;;;17.10;78.60;;;;;;5065735;28;20278;-70
2022/05/23 04:54:39;;;;;;;1.42;1.42;;;17.30;78.30;;;;;;5066132;28;20233;-71
2022/05/23 04:57:06;;;;;;;1.33;1.25;;;17.30;77.90;;;;;;5066431;28;20642;-71
2022/05/23 04:59:33;;;;;;;1.65;1.30;;;17.40;77.80;;;;;;5064385;28;20210;-71
2022/05/23 05:02:01;;;;;;;1.15;1.13;;;17.50;76.90;;;;;;5068342;28;20190;-71
2022/05/23 05:04:27;;;;;;;1.10;1.02;;;17.70;76.20;;;;;;5071602;28;20201;-71
2022/05/23 05:06:53;;;;;;;5.53;1.20;;;17.80;75.20;;;;;;5062588;28;20220;-71
2022/05/23 05:09:19;;;;;;;2.00;1.10;;;;;;;;;;5069721;28;20274;-71
2022/05/23 05:11:45;;;;;;;1.85;0.70;;;18.10;73.90;;;;;;5071119;28;20659;-71
2022/05/23 05:14:11;;;;;;;0.60;0.60;;;;;;;;;;5071312;28;20202;-69
2022/05/23 05:16:37;;;;;;;0.63;0.63;;;18.30;71.70;;;;;;5059178;28;21264;-71
2022/05/23 05:19:03;;;;;;;0.55;0.55;;;18.50;70.80;;;;;;5070208;28;20191;-70
2022/05/23 05:21:29;;;;;;;0.52;0.50;;;18.50;70.00;;;;;;5063778;28;20237;-71
2022/05/23 05:23:55;;;;;;;0.88;0.50;;;18.50;69.90;;;;;;5068378;28;20179;-71
2022/05/23 05:26:22;;;;;;;1.85;0.73;;;;;;;;;;5065789;28;20682;-70
2022/05/23 05:28:48;;;;;;;0.68;0.68;;;18.60;70.00;;;;;;5055059;28;20189;-69
2022/05/23 05:31:45;;;;;;;0.50;0.50;;;18.60;69.50;;;;;;5067433;28;20183;-69
2022/05/23 05:34:34;;;;;;;0.52;0.52;;;18.70;69.20;;;;;;5064852;28;20190;-69
2022/05/23 05:37:05;;;;;;;0.55;0.40;;;18.80;68.90;;;;;;5066558;28;20236;-68
2022/05/23 05:39:33;;;;;;;1.75;0.70;;;18.70;68.70;;;;;;5061242;28;20180;-70
2022/05/23 05:42:30;;;;;;;0.63;0.63;;;18.80;69.10;;;;;;5055796;28;20192;-69
2022/05/23 05:45:08;;;;;;;0.70;0.70;;;18.80;68.40;;;;;;5069060;28;20285;-70
2022/05/23 05:47:38;;;;;;;0.88;0.80;;;18.90;68.20;;;;;;5067180;28;20182;-70
2022/05/23 05:50:24;;;;;;;1.45;0.70;;;19.00;67.50;;;;;;5064403;28;20175;-72
2022/05/23 05:52:53;;;;;;;0.40;0.40;;;19.00;67.50;;;;;;5065648;28;20179;-70
2022/05/23 05:55:19;;;;;;;0.52;0.52;;;19.10;66.90;;;;;;5067482;28;20670;-71
2022/05/23 05:57:45;;;;;;;0.50;0.50;;;19.20;67.10;;;;;;5066636;28;20213;-71
2022/05/23 06:00:14;;;;;;;0.73;0.73;;;19.30;67.50;;;;;;5068219;28;20183;-70
2022/05/23 06:02:40;;;;;;;0.60;0.60;;;19.40;67.60;;;;;;5062731;28;20176;-71
2022/05/23 06:05:06;;;;;;;1.13;0.70;;;19.40;67.90;;;;;;5064572;28;20740;-71
2022/05/23 06:13:05;;;;;;;0.70;0.70;;;19.60;68.20;;;;;;5070493;28;20570;-71
2022/05/23 06:15:31;;;;;;;0.68;0.68;;;;;;;;;;5065001;28;20210;-71
2022/05/23 06:17:56;;;;;;;0.77;0.77;;;19.50;67.70;;;;;;5073583;28;20177;-71
2022/05/23 06:20:23;;;;;;;4.95;0.70;;;19.60;67.70;;;;;;5067039;28;20185;-71
2022/05/23 06:22:50;;;;;;;1.25;0.75;;;19.60;67.70;;;;;;5068077;28;20175;-70
2022/05/23 06:25:16;;;;;;;1.15;0.90;;;19.80;67.70;;;;;;5052574;28;20190;-70
2022/05/23 06:27:42;;;;;;;0.80;0.80;;;19.90;68.00;;;;;;5071407;28;20178;-70
2022/05/23 06:30:10;;;;;;;0.60;0.60;;;20.00;68.40;;;;;;5071080;28;20697;-71
2022/05/23 06:32:37;;;;;;;1.98;0.90;;;20.10;68.10;;;;;;5067709;28;20194;-70
2022/05/23 06:35:07;;;;;;;1.05;0.85;;;20.10;67.70;;;;;;5071415;28;20316;-70
2022/05/23 06:37:35;;;;;;;0.77;0.77;;;20.00;67.30;;;;;;5072129;28;20273;-70
2022/05/23 06:40:03;;;;;;;0.63;0.63;;;20.10;67.60;;;;;;5051723;28;20191;-71
2022/05/23 06:42:29;;;;;;;0.82;0.70;;;20.10;67.40;;;;;;5068968;28;20182;-71
2022/05/23 06:44:55;;;;;;;0.73;0.73;;;20.10;67.50;;;;;;5064352;28;20193;-70
2022/05/23 06:47:21;;;;;;;0.82;0.82;;;20.10;66.60;;;;;;5064324;28;20191;-71
2022/05/23 06:49:47;;;;;;;7.25;0.80;;;20.10;66.80;;;;;;5073346;28;20186;-71
2022/05/23 06:52:15;;;;;;;0.75;0.75;;;;;;;;;;5067425;28;20189;-71
2022/05/23 06:54:41;;;;;;;1.70;0.93;;;20.30;65.40;;;;;;5066396;28;20590;-71
2022/05/23 06:57:07;;;;;;;0.70;0.68;;;20.30;65.20;;;;;;5063802;28;20188;-71
2022/05/23 06:59:34;;;;;;;0.80;0.80;;;20.30;65.70;;;;;;5072725;28;20213;-71
2022/05/23 07:02:01;;;;;;;0.68;0.65;;;20.30;65.70;;;;;;5067225;28;20605;-71
2022/05/23 07:12:19;;;;;;;6.13;0.88;;;20.50;66.00;;;;;;5052067;28;20193;-71
2022/05/23 07:12:53;;;;;;;0.60;0.60;;;20.90;64.50;;;;;;5027243;28;20218;-71
2022/05/23 07:15:18;;;;;;;0.73;0.65;;;21.00;64.30;;;;;;5021188;28;20224;-70
2022/05/23 07:17:45;;;;;;;0.60;0.60;;;;;;;;;;5024980;28;20713;-70
2022/05/23 07:20:11;;;;;;;1.40;0.80;;;21.10;64.20;;;;;;5019082;28;20291;-69
2022/05/23 07:22:37;;;;;;;1.02;1.02;;;21.00;64.40;;;;;;5022989;28;20192;-69
2022/05/23 07:25:03;;;;;;;0.70;0.70;;;21.00;63.60;;;;;;5029620;28;20695;-71
2022/05/23 07:27:30;;;;;;;0.88;0.80;;;20.90;64.10;;;;;;5025939;28;20686;-71
2022/05/23 07:29:55;;;;;;;1.33;0.80;;;21.00;63.80;;;;;;5026593;28;20353;-71
2022/05/23 07:32:21;;;;;;;0.90;0.88;;;20.90;64.30;;;;;;5022805;28;20267;-69
2022/05/23 07:34:48;;;;;;;1.00;1.00;;;;;;;;;;5025327;28;20303;-69
2022/05/23 07:37:15;;;;;;;0.70;0.70;;;21.00;64.00;;;;;;5022893;28;20192;-69
2022/05/23 07:39:41;;;;;;;0.95;0.80;;;21.00;64.60;;;;;;5031723;28;20985;-69
2022/05/23 07:42:08;;;;;;;1.27;0.50;;;21.00;63.20;;;;;;5023580;28;20310;-69
2022/05/23 07:44:37;;;;;;;0.50;0.50;;;21.00;62.20;;;;;;5021649;28;20600;-69
2022/05/23 07:47:06;;;;;;;0.88;0.60;;;21.20;61.20;;;;;;5050382;28;20251;-70
2022/05/23 07:49:35;;;;;;;0.60;0.60;;;21.20;61.20;;;;;;5052747;28;20276;-70
2022/05/23 07:52:02;;;;;;;0.80;0.57;;;21.20;61.00;;;;;;5067007;28;20834;-70
2022/05/23 08:02:43;;;;;;;0.70;0.70;;;21.30;60.90;;;;;;5067674;28;20651;-71
2022/05/23 08:05:09;;;;;;;1.60;0.63;;;21.30;60.80;;;;;;5069302;28;20187;-71
2022/05/23 08:07:34;;;;;;;0.90;0.90;;;21.40;61.50;;;;;;5071298;28;20675;-70
2022/05/23 08:10:01;;;;;;;0.95;0.80;;;21.50;60.90;;;;;;5071915;28;20182;-70
2022/05/23 08:12:31;;;;;;;0.70;0.70;;;21.50;60.90;;;;;;5065914;28;20182;-71
2022/05/23 08:14:58;;;;;;;2.05;0.70;;;21.70;60.90;;;;;;5065623;28;20246;-71
2022/05/23 08:17:24;;;;;;;0.55;0.55;;;21.80;60.70;;;;;;5071805;28;20178;-71
2022/05/23 08:19:49;;;;;;;0.50;0.50;;;21.90;60.50;;;;;;5061998;28;20187;-70
2022/05/23 08:22:16;;;;;;;0.65;0.65;;;22.00;60.20;;;;;;5073363;28;20179;-70
2022/05/23 08:24:42;;;;;;;0.50;0.50;;;22.20;60.00;;;;;;5070508;28;20191;-71
2022/05/23 08:27:08;;;;;;;0.50;0.50;;;22.30;59.60;;;;;;5063120;28;20178;-70
2022/05/23 08:29:38;;;;;;;0.82;0.65;;;22.30;59.30;;;;;;5066646;28;20680;-70
2022/05/23 08:32:06;;;;;;;0.60;0.60;;;22.50;59.60;;;;;;5066381;28;20175;-70
2022/05/23 08:34:32;;;;;;;0.73;0.73;;;22.60;58.20;;;;;;5068819;28;20578;-70
2022/05/23 08:36:58;;;;;;;1.85;0.68;;;22.50;58.30;;;;;;5073074;28;20194;-71
2022/05/23 08:39:25;;;;;;;1.65;0.50;;;22.60;58.10;;;;;;5068250;28;20315;-71
2022/05/23 08:41:52;;;;;;;0.50;0.50;;;22.70;58.40;;;;;;5052281;28;20202;-71
2022/05/23 08:44:41;;;;;;;0.60;0.60;;;22.80;57.80;;;;;;5065381;28;20179;-70
2022/05/23 08:47:24;;;;;;;3.30;0.60;;;22.90;57.80;;;;;;5066372;28;20198;-70
2022/05/23 08:50:08;;;;;;;0.50;0.50;;;23.00;57.40;;;;;;5061097;28;20192;-70
2022/05/23 08:52:42;;;;;;;0.50;0.50;;;23.10;56.50;;;;;;5055640;28;20639;-70
2022/05/23 08:55:08;;;;;;;1.50;0.68;;;;;;;;;;5070864;28;20229;-70
2022/05/23 08:58:02;;;;;;;0.95;0.57;;;23.40;55.90;;;;;;5070338;28;20195;-71
2022/05/23 09:00:40;;;;;;;0.65;0.65;;;23.50;56.00;;;;;;5066608;28;20578;-70
2022/05/23 09:03:40;;;;;;;0.63;0.63;;;23.50;55.70;;;;;;5065305;28;20191;-70
2022/05/23 09:06:12;;;;;;;0.50;0.50;;;23.60;56.30;;;;;;5064894;28;20270;-72
2022/05/23 09:08:51;;;;;;;0.50;0.50;;;23.70;56.10;;;;;;5054257;28;20631;-70
2022/05/23 09:11:32;;;;;;;0.77;0.77;;;23.60;56.90;;;;;;5061461;28;20187;-71
2022/05/23 09:13:59;;;;;;;0.40;0.40;;;23.60;54.90;;;;;;5063930;28;20197;-71
2022/05/23 09:16:42;;;;;;;1.00;1.00;;;23.60;56.10;;;;;;5063316;28;20216;-69
2022/05/23 09:19:32;;;;;;;0.90;0.90;;;23.60;55.60;;;;;;5060187;28;20210;-71
2022/05/23 09:22:14;;;;;;;0.55;0.55;;;23.60;55.60;;;;;;5060305;28;20183;-71
2022/05/23 09:24:49;;;;;;;0.60;0.60;;;23.80;56.00;;;;;;5060501;28;20190;-71
2022/05/23 09:27:35;;;;;;;0.60;0.60;;;23.70;55.60;;;;;;5066822;28;20192;-71
2022/05/23 09:30:01;;;;;;;1.08;0.68;;;23.70;55.40;;;;;;5061112;28;20214;-70
2022/05/23 09:32:32;;;;;;;0.63;0.63;;;23.90;55.90;;;;;;5065175;28;20179;-71
2022/05/23 09:35:00;;;;;;;0.85;0.50;;;24.00;56.30;;;;;;5065046;28;20229;-71
2022/05/23 09:37:46;;;;;;;0.50;0.50;;;24.00;56.30;;;;;;5059472;28;20187;-71
2022/05/23 09:40:26;;;;;;;0.80;0.70;;;24.20;56.70;;;;;;5056540;28;20652;-71
2022/05/23 09:48:24;;;;;;;0.70;0.70;;;24.80;55.50;;;;;;5068469;28;20190;-71
2022/05/23 09:51:05;;;;;;;0.70;0.70;;;25.00;55.60;;;;;;5052254;28;20260;-70
2022/05/23 09:53:47;;;;;;;0.70;0.70;;;25.00;55.10;;;;;;5064511;28;20186;-71
2022/05/23 09:56:32;;;;;;;0.80;0.80;;;25.10;54.90;;;;;;5078614;28;20297;-71
2022/05/23 09:59:01;;;;;;;0.90;0.90;;;25.20;54.80;;;;;;5063376;28;20194;-71
2022/05/23 10:01:30;;;;;;;2.92;0.70;;;25.20;54.30;;;;;;5054988;28;20194;-71
2022/05/23 10:03:56;;;;;;;2.92;1.17;;;25.20;55.10;;;;;;5068452;28;20207;-71
2022/05/23 10:06:40;;;;;;;3.13;1.10;;;25.30;55.00;;;;;;5058819;28;20190;-71
2022/05/23 10:09:08;;;;;;;0.70;0.70;;;25.60;54.70;;;;;;5050293;28;20539;-70
2022/05/23 10:11:36;;;;;;;1.10;1.10;;;25.80;54.40;;;;;;5069781;28;21550;-70
2022/05/23 10:14:16;;;;;;;0.90;0.70;;;26.00;53.40;;;;;;5062579;28;20296;-70
2022/05/23 10:16:46;;;;;;;0.77;0.77;;;26.20;52.90;;;;;;5064066;28;20213;-70
2022/05/23 10:19:28;;;;;;;0.50;0.50;;;26.50;52.60;;;;;;5063652;28;20688;-70
2022/05/23 10:22:13;;;;;;;0.60;0.60;;;26.80;52.70;;;;;;5062413;28;20178;-70
2022/05/23 10:24:46;;;;;;;1.33;0.60;;;27.10;52.20;;;;;;5064626;28;20198;-71
2022/05/23 10:27:17;;;;;;;0.50;0.50;;;27.40;50.70;;;;;;5060305;28;20178;-71
2022/05/23 10:29:59;;;;;;;2.40;0.68;;;27.70;51.20;;;;;;5062611;28;20191;-71
2022/05/23 10:33:04;;;;;;;1.13;0.50;;;28.00;49.80;;;;;;5063492;28;20735;-71
2022/05/23 10:35:38;;;;;;;0.80;0.80;;;28.30;49.60;;;;;;5039645;28;20764;-71
2022/05/23 10:44:16;;;;;;;1.10;0.63;;;29.20;50.30;;;;;;5037682;28;20278;-70
2022/05/23 10:46:46;;;;;;;0.60;0.60;;;29.70;49.80;;;;;;4998231;28;20201;-71
2022/05/23 10:49:46;;;;;;;0.68;0.68;;;30.30;48.60;;;;;;4982274;28;20203;-71
2022/05/23 10:52:34;;;;;;;0.50;0.50;;;31.20;47.70;;;;;;4998529;28;20770;-70
2022/05/23 10:55:13;;;;;;;1.00;0.70;;;31.70;46.30;;;;;;4997888;28;20611;-71
2022/05/23 10:58:14;;;;;;;0.40;0.40;;;32.00;45.00;;;;;;5000553;28;20287;-70
2022/05/23 11:00:54;;;;;;;0.70;0.70;;;32.10;45.60;;;;;;4936004;28;20199;-71
2022/05/23 11:03:48;;;;;;;0.63;0.63;;;32.20;46.00;;;;;;4936842;28;20191;-71
2022/05/23 11:06:25;;;;;;;0.57;0.57;;;32.40;45.60;;;;;;4941645;28;20194;-71
2022/05/23 11:09:05;;;;;;;0.55;0.45;;;32.70;44.70;;;;;;4945890;28;20280;-71
2022/05/23 11:11:51;;;;;;;0.43;0.43;;;32.90;43.80;;;;;;4966865;28;20194;-71
2022/05/23 11:14:32;;;;;;;0.60;0.57;;;33.00;46.00;;;;;;4959068;28;20691;-71
2022/05/23 11:17:32;;;;;;;3.17;0.60;;;33.20;44.40;;;;;;4988333;28;20280;-72
2022/05/23 11:19:58;;;;;;;0.60;0.60;;;;;;;;;;4964984;28;20253;-71
2022/05/23 11:22:33;;;;;;;0.50;0.50;;;33.90;43.70;;;;;;4964894;28;20198;-71
2022/05/23 11:25:14;;;;;;;0.47;0.47;;;34.20;43.30;;;;;;4992185;28;20732;-72
2022/05/23 11:33:47;;;;;;;0.52;0.50;;;34.60;41.90;;;;;;4984269;28;20219;-71
2022/05/23 11:36:24;;;;;;;4.13;0.70;;;34.70;41.90;;;;;;5056453;28;20649;-71
2022/05/23 11:38:51;;;;;;;0.60;0.60;;;34.70;42.60;;;;;;5056710;28;20189;-71
2022/05/23 11:41:41;;;;;;;0.60;0.60;;;34.50;42.40;;;;;;5066545;28;20605;-71
2022/05/23 11:44:41;;;;;;;0.60;0.60;;;34.30;43.80;;;;;;5056911;28;20273;-71
2022/05/23 11:47:16;;;;;;;0.50;0.50;;;34.10;43.20;;;;;;5068284;28;21473;-70
2022/05/23 11:49:45;;;;;;;0.50;0.50;;;34.30;43.30;;;;;;5090809;28;20642;-70
2022/05/23 11:52:34;;;;;;;0.77;0.60;;;34.70;42.40;;;;;;5069474;28;20183;-70
2022/05/23 11:55:00;;;;;;;0.60;0.60;;;34.90;43.50;;;;;;5067207;28;20279;-70
2022/05/23 11:57:35;;;;;;;0.50;0.50;;;34.80;42.50;;;;;;5068212;28;21090;-70
2022/05/23 12:00:06;;;;;;;0.68;0.50;;;34.70;43.00;;;;;;5068274;28;20461;-70
2022/05/23 12:02:37;;;;;;;0.85;0.50;;;35.00;43.10;;;;;;5065834;28;20187;-69
2022/05/23 12:05:09;;;;;;;1.15;0.80;;;35.20;42.60;;;;;;5067479;28;20659;-72
2022/05/23 12:07:37;;;;;;;1.08;0.65;;;;;;;;;;5061437;28;20287;-72
2022/05/23 12:10:21;;;;;;;0.50;0.47;;;35.50;41.50;;;;;;5063176;28;20192;-71
2022/05/23 12:12:51;;;;;;;0.52;0.52;;;35.40;41.40;;;;;;5051609;28;20182;-72
2022/05/23 12:15:42;;;;;;;1.35;0.63;;;34.40;41.40;;;;;;5061995;28;20264;-72
2022/05/23 12:18:21;;;;;;;0.50;0.50;;;33.70;42.60;;;;;;5063717;28;20205;-71
2022/05/23 12:20:57;;;;;;;1.73;0.68;;;32.80;42.70;;;;;;5056284;28;20189;-71
2022/05/23 12:23:45;;;;;;;0.88;0.60;;;32.20;45.00;;;;;;5061222;28;20189;-72
2022/05/23 12:26:11;;;;;;;0.57;0.57;;;;;;;;;;5045869;28;20199;-70
2022/05/23 12:28:57;;;;;;;0.70;0.70;;;31.70;45.00;;;;;;5062182;28;20183;-69
2022/05/23 12:31:29;;;;;;;1.50;0.60;;;31.70;45.30;;;;;;5066801;28;20242;-71
2022/05/23 12:34:03;;;;;;;0.50;0.50;;;31.90;44.40;;;;;;5067005;28;20190;-69
2022/05/23 12:36:32;;;;;;;0.77;0.77;;;32.00;44.90;;;;;;5090296;28;20209;-70
2022/05/23 12:39:32;;;;;;;0.50;0.50;;;31.80;45.30;;;;;;5062531;28;20298;-69
2022/05/23 12:42:38;;;;;;;1.30;0.60;;;31.70;45.80;;;;;;5058805;28;20189;-70
2022/05/23 12:45:28;;;;;;;0.63;0.63;;;31.80;43.80;;;;;;5066307;28;20681;-70
2022/05/23 12:48:23;;;;;;;0.73;0.73;;;31.90;44.30;;;;;;5060727;28;20175;-71
2022/05/23 12:50:49;;;;;;;0.50;0.50;;;;;;;;;;5045755;28;20281;-71
2022/05/23 12:53:31;;;;;;;0.80;0.80;;;31.80;43.90;;;;;;5072463;28;20653;-70
2022/05/23 12:55:57;;;;;;;0.50;0.50;;;;;;;;;;5070911;28;20313;-71
2022/05/23 12:58:32;;;;;;;0.68;0.68;;;32.20;44.30;;;;;;5057174;28;20716;-71
2022/05/23 13:01:03;;;;;;;0.60;0.60;;;32.10;43.90;;;;;;5073055;28;20273;-70
2022/05/23 13:03:45;;;;;;;0.70;0.70;;;32.30;44.80;;;;;;5073067;28;20243;-70
2022/05/23 13:06:30;;;;;;;0.60;0.60;;;32.70;43.60;;;;;;5055852;28;20236;-70
2022/05/23 13:09:09;;;;;;;0.80;0.60;;;33.00;44.50;;;;;;5058298;28;20656;-70
2022/05/23 13:11:43;;;;;;;3.33;0.65;;;33.20;43.80;;;;;;5088847;28;20714;-70
2022/05/23 13:14:09;;;;;;;0.75;0.75;;;33.30;43.70;;;;;;5082989;28;20577;-72
2022/05/23 13:16:38;;;;;;;0.60;0.60;;;33.40;42.90;;;;;;5065870;28;20215;-73
2022/05/23 13:22:12;;;;;;;0.70;0.70;;;32.50;43.30;;;;;;5061286;28;20205;-70
2022/05/23 13:24:59;;;;;;;0.60;0.60;;;32.00;44.20;;;;;;5057186;28;20210;-70
2022/05/23 13:27:29;;;;;;;0.60;0.60;;;31.80;45.70;;;;;;5057780;28;20239;-71
2022/05/23 13:30:06;;;;;;;1.95;0.80;;;31.80;44.70;;;;;;5063985;28;20720;-71
2022/05/23 13:32:33;;;;;;;1.58;0.73;;;31.60;44.90;;;;;;5068891;28;20672;-71
2022/05/23 13:35:00;;;;;;;0.52;0.52;;;31.30;45.20;;;;;;5071232;28;20246;-71
2022/05/23 13:37:27;;;;;;;0.50;0.50;;;31.30;46.20;;;;;;5064431;28;20178;-71
2022/05/23 13:39:53;;;;;;;0.68;0.68;;;;;;;;;;5071171;28;20190;-71
2022/05/23 13:42:28;;;;;;;0.65;0.65;;;31.70;45.20;;;;;;5070814;28;20187;-71
2022/05/23 13:45:11;;;;;;;3.30;0.70;;;31.90;45.90;;;;;;5056347;28;20183;-71
2022/05/23 13:47:40;;;;;;;0.60;0.60;;;32.10;46.30;;;;;;5066618;28;20190;-71
2022/05/23 13:50:13;;;;;;;0.50;0.50;;;32.20;44.70;;;;;;5072469;28;20175;-71
2022/05/23 13:52:48;;;;;;;0.95;0.50;;;32.30;44.20;;;;;;5073377;28;20213;-71
2022/05/23 13:55:26;;;;;;;1.10;0.60;;;32.20;44.40;;;;;;5069529;28;20290;-71
2022/05/23 13:57:59;;;;;;;3.35;0.75;;;32.10;44.70;;;;;;5061969;28;20186;-71
2022/05/23 14:00:39;;;;;;;0.70;0.70;;;32.00;44.60;;;;;;5072204;28;20272;-72
2022/05/23 14:03:11;;;;;;;0.50;0.50;;;32.00;44.70;;;;;;5070720;28;20550;-71
2022/05/23 14:05:44;;;;;;;0.73;0.73;;;32.10;44.80;;;;;;5066872;28;20283;-71
2022/05/23 14:08:15;;;;;;;1.00;0.88;;;32.10;45.20;;;;;;5069817;28;20497;-71
2022/05/23 14:10:44;;;;;;;0.88;0.88;;;31.90;45.10;;;;;;5055090;28;20187;-71
2022/05/23 14:13:14;;;;;;;1.75;0.70;;;31.50;45.50;;;;;;5067174;28;20183;-71
2022/05/23 14:15:45;;;;;;;0.88;0.88;;;31.40;47.00;;;;;;5062596;28;20606;-71